Volcan De Tamadaba — EAOG — position and weather

sailwx.info

Track history (hours):
 
Tides and Currents Weather Stations Pressure Air Temp Water Temp Dewpoint Dewpoint Depression Visibility Wind Speed Wind Dir Waves Ship Positions

Volcan De Tamadaba

Last reported at 2018-May-23 01:30 UTC. Time now 2018-May-23 01:36 UTC.
Position N 28°19' W 015°02'.

Length 155 m; draft 5 m.

Type: Passenger vessel. MMSI: 224957000.

Date/timePositionNaut miles runAvg speedWind from/ knotsBaromVisibWave heightAir tempDewpointWater temp
2018-May-23 01:30N 28°19' W 015°02'1121.2
2018-May-23 01:00N 28°14' W 015°13'1121.1
2018-May-23 00:30N 28°09' W 015°23'1 1.6
2018-May-23 00:00N 28°10' W 015°24'0 0.0
2018-May-22 23:30N 28°10' W 015°24'0 0.0
2018-May-22 23:00N 28°10' W 015°24'0 0.0
2018-May-22 22:30N 28°10' W 015°24'1 1.0
2018-May-22 22:00N 28°09' W 015°24'918.4
2018-May-22 21:30N 28°15' W 015°32'1122.4
2018-May-22 21:00N 28°19' W 015°45'1322.2
2018-May-22 20:25N 28°23' W 015°58'922.4
2018-May-22 20:01N 28°27' W 016°08'612.2
2018-May-22 19:29N 28°28' W 016°15'0 0.0
2018-May-22 19:00N 28°28' W 016°15'0 0.0
2018-May-22 18:29N 28°28' W 016°15'0 0.0
2018-May-22 18:00N 28°28' W 016°15'4 9.2
2018-May-22 17:30N 28°27' W 016°10'2221.6
2018-May-22 16:30N 28°20' W 015°47'1021.3
2018-May-22 16:00N 28°16' W 015°35'1121.1
2018-May-22 15:30N 28°12' W 015°24'2 5.0
2018-May-22 15:00N 28°10' W 015°24'0 0.0
2018-May-22 14:30N 28°10' W 015°24'0 0.0
2018-May-22 13:59N 28°10' W 015°24'0 0.0
2018-May-22 13:30N 28°10' W 015°24'0 0.0
2018-May-22 13:00N 28°10' W 015°24'0 0.0
2018-May-22 12:30N 28°10' W 015°24'0 0.0
2018-May-22 12:00N 28°10' W 015°24'0 0.0
2018-May-22 11:30N 28°10' W 015°24'0 0.0
2018-May-22 11:00N 28°10' W 015°24'0 0.0
2018-May-22 10:30N 28°10' W 015°24'0 0.0
2018-May-22 10:00N 28°10' W 015°24'0 0.0
2018-May-22 09:30N 28°10' W 015°24'0 0.2
2018-May-22 09:00N 28°09' W 015°24'713.4
2018-May-22 08:30N 28°14' W 015°30'1121.5
2018-May-22 08:00N 28°18' W 015°41'1521.8
2018-May-22 07:19N 28°23' W 015°57'721.9
2018-May-22 07:00N 28°25' W 016°04'1019.1
2018-May-22 06:30N 28°29' W 016°14'0 0.7
2018-May-22 06:00N 28°28' W 016°15'0 0.0
2018-May-22 05:30N 28°28' W 016°15'0 0.0
2018-May-22 04:59N 28°28' W 016°15'0 0.0
2018-May-22 04:30N 28°28' W 016°15'0 0.0
2018-May-22 04:00N 28°28' W 016°15'0 0.0
2018-May-22 03:30N 28°28' W 016°15'0 0.0
2018-May-22 03:00N 28°28' W 016°15'0 0.0
2018-May-22 02:30N 28°28' W 016°15'0 0.0
2018-May-22 02:00N 28°28' W 016°15'0 0.0
2018-May-22 01:30N 28°28' W 016°15'0 0.0
2018-May-22 01:00N 28°28' W 016°15'0 0.0
2018-May-22 00:30N 28°28' W 016°15'0 0.0
2018-May-22 00:00N 28°28' W 016°15'0 0.0
2018-May-21 23:30N 28°28' W 016°15'0 0.0
2018-May-21 23:00N 28°28' W 016°15'0 0.0
2018-May-21 22:30N 28°28' W 016°15'0 0.0
2018-May-21 22:00N 28°28' W 016°15'3 6.6
2018-May-21 21:30N 28°28' W 016°11'3821.4
2018-May-21 19:43N 28°14' W 015°30'421.5
2018-May-21 19:30N 28°12' W 015°26'3 6.2
2018-May-21 19:00N 28°10' W 015°24'0 0.0
2018-May-21 18:30N 28°10' W 015°24'0 0.0
2018-May-21 18:01N 28°10' W 015°24'1 1.1
2018-May-21 17:30N 28°09' W 015°24'817.2
2018-May-21 17:00N 28°14' W 015°32'3121.1
2018-May-21 15:31N 28°25' W 016°05'121.0
2018-May-21 15:29N 28°26' W 016°06'817.3
2018-May-21 15:00N 28°28' W 016°15'0 0.2
2018-May-21 14:30N 28°28' W 016°15'0 0.0
2018-May-21 14:00N 28°28' W 016°15'0 0.0
2018-May-21 13:30N 28°28' W 016°15'0 0.0
2018-May-21 13:00N 28°28' W 016°15'0 0.0
2018-May-21 12:30N 28°28' W 016°15'0 0.0
2018-May-21 12:00N 28°28' W 016°15'0 0.0
2018-May-21 11:30N 28°28' W 016°15'0 0.0
2018-May-21 11:00N 28°28' W 016°15'0 0.0
2018-May-21 10:30N 28°28' W 016°15'0 0.0
2018-May-21 10:00N 28°28' W 016°15'0 0.0
2018-May-21 09:30N 28°28' W 016°15'0 0.0
2018-May-21 09:00N 28°28' W 016°15'3 6.5
2018-May-21 08:30N 28°28' W 016°11'1421.5
2018-May-21 07:51N 28°23' W 015°56'1221.5
2018-May-21 07:17N 28°18' W 015°43'821.5
2018-May-21 06:56N 28°16' W 015°35'921.5
2018-May-21 06:30N 28°13' W 015°25'3 6.3
2018-May-21 06:00N 28°10' W 015°24'0 0.0
2018-May-21 05:30N 28°10' W 015°24'0 0.0
2018-May-21 05:00N 28°10' W 015°24'0 0.0
2018-May-21 04:30N 28°10' W 015°24'0 0.0
2018-May-21 04:00N 28°10' W 015°24'0 0.0
2018-May-21 03:30N 28°10' W 015°24'0 0.0
2018-May-21 03:00N 28°10' W 015°24'0 0.0
2018-May-21 02:30N 28°10' W 015°24'0 0.0
2018-May-21 01:59N 28°10' W 015°24'0 0.0
2018-May-21 01:30N 28°10' W 015°24'0 0.0
2018-May-21 01:00N 28°10' W 015°24'0 0.0
2018-May-21 00:30N 28°10' W 015°24'0 0.0
2018-May-21 00:00N 28°10' W 015°24'0 0.0
2018-May-20 23:30N 28°10' W 015°24'0 0.0
2018-May-20 23:00N 28°10' W 015°24'0 0.0
2018-May-20 22:30N 28°10' W 015°24'0 0.0
2018-May-20 22:00N 28°10' W 015°24'0 0.0
2018-May-20 21:30N 28°10' W 015°24'0 0.3
2018-May-20 21:00N 28°09' W 015°24'713.5
2018-May-20 20:30N 28°14' W 015°30'1321.8
2018-May-20 19:55N 28°18' W 015°43'1521.4
2018-May-20 19:13N 28°24' W 015°59'521.5
2018-May-20 19:00N 28°25' W 016°04'1019.2
2018-May-20 18:30N 28°29' W 016°14'0 0.7
2018-May-20 18:00N 28°28' W 016°15'0 0.0
2018-May-20 17:30N 28°28' W 016°15'0 0.4
2018-May-20 17:00N 28°28' W 016°15'918.5
2018-May-20 16:30N 28°25' W 016°05'2121.7
2018-May-20 15:32N 28°18' W 015°42'121.4
2018-May-20 15:30N 28°18' W 015°42'1121.5
2018-May-20 15:00N 28°14' W 015°30'713.1
2018-May-20 14:28N 28°09' W 015°24'0 0.3
2018-May-20 14:00N 28°10' W 015°24'0 0.0
2018-May-20 13:30N 28°10' W 015°24'0 0.0
2018-May-20 13:00N 28°10' W 015°24'0 0.1
2018-May-20 12:30N 28°10' W 015°24'0 0.1
2018-May-20 12:00N 28°10' W 015°24'0 0.0
2018-May-20 11:30N 28°10' W 015°24'0 0.0
2018-May-20 11:00N 28°10' W 015°24'0 0.0
2018-May-20 10:30N 28°10' W 015°24'0 0.0
2018-May-20 10:00N 28°10' W 015°24'0 0.0
2018-May-20 09:30N 28°10' W 015°24'0 0.0
2018-May-20 08:58N 28°10' W 015°24'0 0.0
2018-May-20 08:30N 28°10' W 015°24'0 0.0
2018-May-20 08:00N 28°10' W 015°24'0 0.0
2018-May-20 07:30N 28°10' W 015°24'0 0.0
2018-May-20 07:00N 28°10' W 015°24'0 0.0
2018-May-20 06:30N 28°10' W 015°24'0 0.0
2018-May-20 06:00N 28°10' W 015°24'0 0.0
2018-May-20 05:29N 28°10' W 015°24'0 0.0
2018-May-20 05:00N 28°10' W 015°24'0 0.0
2018-May-20 04:30N 28°10' W 015°24'0 0.0
2018-May-20 04:00N 28°10' W 015°24'0 0.0
2018-May-20 03:30N 28°10' W 015°24'0 0.0
2018-May-20 03:00N 28°10' W 015°24'0 0.0
2018-May-20 02:30N 28°10' W 015°24'0 0.0
2018-May-20 02:00N 28°10' W 015°24'0 0.0
2018-May-20 01:30N 28°10' W 015°24'0 0.0
2018-May-20 01:00N 28°10' W 015°24'0 0.0
2018-May-20 00:30N 28°10' W 015°24'0 0.0
2018-May-20 00:00N 28°10' W 015°24'0 0.0
2018-May-19 23:30N 28°10' W 015°24'0 0.0
2018-May-19 23:00N 28°10' W 015°24'0 0.0
2018-May-19 22:30N 28°10' W 015°24'0 0.0
2018-May-19 22:00N 28°10' W 015°24'0 0.7
2018-May-19 21:30N 28°09' W 015°24'816.0
2018-May-19 20:59N 28°14' W 015°32'1121.5
2018-May-19 20:28N 28°19' W 015°43'1621.2
2018-May-19 19:44N 28°24' W 015°60'521.4
2018-May-19 19:31N 28°26' W 016°05'917.9
2018-May-19 19:00N 28°28' W 016°15'0 0.3
2018-May-19 18:30N 28°28' W 016°15'0 0.0
2018-May-19 18:00N 28°28' W 016°15'0 0.0
2018-May-19 17:30N 28°28' W 016°15'0 0.0
2018-May-19 17:00N 28°28' W 016°15'0 0.0
2018-May-19 16:29N 28°28' W 016°15'0 0.0
2018-May-19 16:00N 28°28' W 016°15'0 0.0
2018-May-19 15:30N 28°28' W 016°15'0 0.0
2018-May-19 15:00N 28°28' W 016°15'0 0.0
2018-May-19 14:30N 28°28' W 016°15'0 0.0
2018-May-19 14:00N 28°28' W 016°15'0 0.0
2018-May-19 13:30N 28°28' W 016°15'0 0.0
2018-May-19 13:00N 28°28' W 016°15'0 0.0
2018-May-19 12:30N 28°28' W 016°15'0 0.0
2018-May-19 12:00N 28°28' W 016°15'0 0.0
2018-May-19 11:29N 28°28' W 016°15'0 0.0
2018-May-19 11:00N 28°28' W 016°15'0 0.0
2018-May-19 10:30N 28°28' W 016°15'0 0.0
2018-May-19 10:00N 28°28' W 016°15'0 0.1
2018-May-19 09:30N 28°28' W 016°15'816.0
2018-May-19 09:00N 28°26' W 016°06'3421.4
2018-May-19 07:25N 28°14' W 015°30'718.0
2018-May-19 07:00N 28°09' W 015°24'1 1.1
2018-May-19 06:30N 28°10' W 015°24'0 0.0
2018-May-19 06:00N 28°10' W 015°24'0 0.0
2018-May-19 05:31N 28°10' W 015°24'0 0.0
2018-May-19 05:01N 28°10' W 015°24'0 0.0
2018-May-19 04:30N 28°10' W 015°24'0 0.0
2018-May-19 04:01N 28°10' W 015°24'0 0.0
2018-May-19 03:31N 28°10' W 015°24'0 0.1
2018-May-19 03:01N 28°10' W 015°24'0 0.0
2018-May-19 02:31N 28°10' W 015°24'0 0.0
2018-May-19 02:00N 28°10' W 015°24'0 0.0
2018-May-19 01:30N 28°10' W 015°24'0 0.0
2018-May-19 00:59N 28°10' W 015°24'0 0.0
2018-May-19 00:30N 28°10' W 015°24'0 0.0
2018-May-19 00:00N 28°10' W 015°24'0 0.0
2018-May-18 23:30N 28°10' W 015°24'0 0.0
2018-May-18 23:00N 28°10' W 015°24'0 0.0
2018-May-18 22:30N 28°10' W 015°24'0 0.0
2018-May-18 22:00N 28°10' W 015°24'3 5.8
2018-May-18 21:30N 28°12' W 015°25'4021.0
2018-May-18 19:36N 28°26' W 016°08'221.2
2018-May-18 19:30N 28°27' W 016°10'4 8.8
2018-May-18 19:00N 28°28' W 016°15'0 0.0
2018-May-18 18:30N 28°28' W 016°15'0 0.7
2018-May-18 18:00N 28°29' W 016°14'1019.2
2018-May-18 17:30N 28°25' W 016°04'3121.6
2018-May-18 16:03N 28°14' W 015°31'120.9
2018-May-18 16:00N 28°14' W 015°30'713.1
2018-May-18 15:30N 28°09' W 015°24'0 0.5
2018-May-18 15:00N 28°10' W 015°24'0 0.0
2018-May-18 14:30N 28°10' W 015°24'0 0.0
2018-May-18 14:00N 28°10' W 015°24'0 0.0
2018-May-18 13:30N 28°10' W 015°24'612.2
2018-May-18 13:00N 28°12' W 015°18'1121.6
2018-May-18 12:30N 28°17' W 015°07'7721.5
2018-May-18 08:55N 28°49' W 013°47'921.9
2018-May-18 08:30N 28°54' W 013°38'714.2
2018-May-18 07:59N 28°58' W 013°32'0 0.0
2018-May-18 07:30N 28°58' W 013°32'0 0.0
2018-May-18 06:45N 28°58' W 013°32'0 0.0
2018-May-18 06:30N 28°58' W 013°32'0 0.0
2018-May-18 06:00N 28°58' W 013°32'0 0.0
2018-May-18 05:29N 28°58' W 013°32'4 7.2
2018-May-18 05:00N 28°55' W 013°34'107 4.4
2018-May-17 04:34N 28°10' W 015°24'0 0.1
2018-May-17 04:29N 28°10' W 015°24'0 0.0
2018-May-17 04:00N 28°10' W 015°24'0 0.0
2018-May-17 03:30N 28°10' W 015°24'0 0.0
2018-May-17 03:01N 28°10' W 015°24'0 0.0
2018-May-17 02:30N 28°10' W 015°24'0 0.0
2018-May-17 02:01N 28°10' W 015°24'0 0.0
2018-May-17 01:31N 28°10' W 015°24'0 0.0
2018-May-17 01:00N 28°10' W 015°24'0 0.0
2018-May-17 00:30N 28°10' W 015°24'0 0.0
2018-May-17 00:00N 28°10' W 015°24'0 0.0
2018-May-16 23:29N 28°10' W 015°24'0 0.0
2018-May-16 23:00N 28°10' W 015°24'0 0.0
2018-May-16 22:29N 28°10' W 015°24'0 0.0
2018-May-16 22:00N 28°10' W 015°24'0 0.2
2018-May-16 21:30N 28°10' W 015°24'612.4
2018-May-16 21:01N 28°14' W 015°29'1121.2
2018-May-16 20:30N 28°17' W 015°40'1420.9
2018-May-16 19:49N 28°23' W 015°55'821.0
2018-May-16 19:27N 28°25' W 016°04'921.2
2018-May-16 19:00N 28°29' W 016°14'1 1.8
2018-May-16 18:30N 28°28' W 016°15'0 0.0
2018-May-16 18:00N 28°28' W 016°15'2 3.1
2018-May-16 17:30N 28°29' W 016°13'1121.2
2018-May-16 17:00N 28°25' W 016°02'1721.1
2018-May-16 16:12N 28°19' W 015°44'420.7
2018-May-16 16:00N 28°17' W 015°39'1020.7
2018-May-16 15:30N 28°13' W 015°28'510.9
2018-May-16 15:00N 28°10' W 015°24'0 0.0
2018-May-16 14:29N 28°10' W 015°24'0 0.0
2018-May-16 14:01N 28°10' W 015°24'0 0.0
2018-May-16 13:30N 28°10' W 015°24'0 0.0
2018-May-16 13:00N 28°10' W 015°24'0 0.0
2018-May-16 12:30N 28°10' W 015°24'0 0.0
2018-May-16 12:00N 28°10' W 015°24'0 0.0
2018-May-16 11:31N 28°10' W 015°24'0 0.0
2018-May-16 11:00N 28°10' W 015°24'0 0.0
2018-May-16 10:30N 28°10' W 015°24'0 0.0
2018-May-16 10:00N 28°10' W 015°24'0 0.0
2018-May-16 09:30N 28°10' W 015°24'0 0.4
2018-May-16 09:00N 28°09' W 015°24'714.3
2018-May-16 08:30N 28°14' W 015°30'1021.1
2018-May-16 08:00N 28°17' W 015°41'1121.2
2018-May-16 07:29N 28°21' W 015°53'1021.1
2018-May-16 07:00N 28°25' W 016°04'1019.8
2018-May-16 06:30N 28°29' W 016°14'1 1.2
2018-May-16 06:00N 28°28' W 016°15'0 0.0
2018-May-16 05:30N 28°28' W 016°15'0 0.0
2018-May-16 05:00N 28°28' W 016°15'0 0.0
2018-May-16 04:29N 28°28' W 016°15'0 0.0
2018-May-16 04:00N 28°28' W 016°15'0 0.0
2018-May-16 03:30N 28°28' W 016°15'0 0.0
2018-May-16 03:00N 28°28' W 016°15'0 0.0
2018-May-16 02:30N 28°28' W 016°15'0 0.0
2018-May-16 02:00N 28°28' W 016°15'0 0.0
2018-May-16 01:30N 28°28' W 016°15'0 0.0
2018-May-16 01:00N 28°28' W 016°15'0 0.0
2018-May-16 00:30N 28°28' W 016°15'0 0.0
2018-May-16 00:00N 28°28' W 016°15'0 0.0
2018-May-15 23:30N 28°28' W 016°15'0 0.0
2018-May-15 23:00N 28°28' W 016°15'0 0.0
2018-May-15 22:30N 28°28' W 016°15'0 0.0
2018-May-15 22:00N 28°28' W 016°15'815.1
2018-May-15 21:29N 28°26' W 016°06'3020.9
2018-May-15 20:04N 28°15' W 015°34'220.7
2018-May-15 19:58N 28°15' W 015°32'919.5
2018-May-15 19:30N 28°11' W 015°23'2 3.8
2018-May-15 19:01N 28°10' W 015°24'0 0.0
2018-May-15 18:30N 28°10' W 015°24'0 0.0
2018-May-15 18:01N 28°10' W 015°24'0 0.7
2018-May-15 17:31N 28°09' W 015°24'1019.2
2018-May-15 17:00N 28°15' W 015°33'1121.0
2018-May-15 16:30N 28°19' W 015°44'1320.3
2018-May-15 15:52N 28°23' W 015°58'820.8
2018-May-15 15:29N 28°26' W 016°06'816.6
2018-May-15 15:01N 28°28' W 016°15'0 0.0
2018-May-15 14:30N 28°28' W 016°15'0 0.0
2018-May-15 14:01N 28°28' W 016°15'0 0.0
2018-May-15 13:30N 28°28' W 016°15'0 0.0
2018-May-15 13:00N 28°28' W 016°15'0 0.0
2018-May-15 12:31N 28°28' W 016°15'0 0.0
2018-May-15 12:00N 28°28' W 016°15'0 0.0
2018-May-15 11:31N 28°28' W 016°15'0 0.0
2018-May-15 11:00N 28°28' W 016°15'0 0.0
2018-May-15 10:31N 28°28' W 016°15'0 0.0
2018-May-15 10:00N 28°28' W 016°15'0 0.0
2018-May-15 09:31N 28°28' W 016°15'0 0.0
2018-May-15 09:01N 28°28' W 016°15'5 9.8
2018-May-15 08:29N 28°27' W 016°09'3221.2
2018-May-15 06:58N 28°15' W 015°35'1020.5
2018-May-15 06:28N 28°12' W 015°24'2 5.1
2018-May-15 06:00N 28°10' W 015°24'0 0.0
2018-May-15 05:30N 28°10' W 015°24'0 0.0
2018-May-15 05:00N 28°10' W 015°24'0 0.0
2018-May-15 04:30N 28°10' W 015°24'0 0.0
2018-May-15 04:00N 28°10' W 015°24'0 0.0
2018-May-15 03:30N 28°10' W 015°24'0 0.0
2018-May-15 03:00N 28°10' W 015°24'0 0.0
2018-May-15 02:30N 28°10' W 015°24'0 0.0
2018-May-15 02:00N 28°10' W 015°24'0 0.0
2018-May-15 01:29N 28°10' W 015°24'0 0.0
2018-May-15 01:00N 28°10' W 015°24'0 0.0
2018-May-15 00:30N 28°10' W 015°24'0 0.0
2018-May-15 00:00N 28°10' W 015°24'0 0.0
2018-May-14 23:30N 28°10' W 015°24'0 0.0
2018-May-14 23:00N 28°10' W 015°24'0 0.0
2018-May-14 22:30N 28°10' W 015°24'0 0.0
2018-May-14 22:00N 28°10' W 015°24'0 0.0
2018-May-14 21:30N 28°10' W 015°24'0 0.0
2018-May-14 21:00N 28°10' W 015°24'0 0.0
2018-May-14 20:30N 28°10' W 015°24'0 0.0
2018-May-14 20:00N 28°10' W 015°24'0 0.0
2018-May-14 19:30N 28°10' W 015°24'0 0.0
2018-May-14 19:00N 28°10' W 015°24'0 0.0
2018-May-14 18:30N 28°10' W 015°24'0 0.0
2018-May-14 18:00N 28°10' W 015°24'2 4.2
2018-May-14 17:30N 28°09' W 015°22'1121.1
2018-May-14 17:00N 28°07' W 015°10'1121.3
2018-May-14 16:30N 28°06' W 014°58'1521.1
2018-May-14 15:47N 28°03' W 014°41'621.0
2018-May-14 15:30N 28°02' W 014°35'20 2.8
2018-May-14 08:12N 28°05' W 014°57'420.1
2018-May-14 08:00N 28°06' W 015°02'1020.2
2018-May-14 07:30N 28°07' W 015°13'1019.8
2018-May-14 07:00N 28°09' W 015°24'1 1.0
2018-May-14 06:30N 28°10' W 015°24'0 0.0
2018-May-14 06:00N 28°10' W 015°24'0 0.0
2018-May-14 05:31N 28°10' W 015°24'0 0.0
2018-May-14 05:01N 28°10' W 015°24'0 0.0
2018-May-14 04:31N 28°10' W 015°24'0 0.0
2018-May-14 04:01N 28°10' W 015°24'0 0.0
2018-May-14 03:30N 28°10' W 015°24'0 0.0
2018-May-14 03:00N 28°10' W 015°24'0 0.0
2018-May-14 02:30N 28°10' W 015°24'0 0.0
2018-May-14 02:00N 28°10' W 015°24'0 0.0
2018-May-14 01:31N 28°10' W 015°24'0 0.0
2018-May-14 01:00N 28°10' W 015°24'0 0.0
2018-May-14 00:31N 28°10' W 015°24'0 0.0
2018-May-14 00:00N 28°10' W 015°24'0 0.0
2018-May-13 23:30N 28°10' W 015°24'0 0.0
2018-May-13 23:01N 28°10' W 015°24'0 0.0
2018-May-13 22:30N 28°10' W 015°24'0 0.0
2018-May-13 22:00N 28°10' W 015°24'0 0.0
2018-May-13 21:31N 28°10' W 015°24'0 0.0
2018-May-13 21:00N 28°10' W 015°24'0 0.0
2018-May-13 20:30N 28°10' W 015°24'1 2.7
2018-May-13 20:01N 28°09' W 015°23'1121.1
2018-May-13 19:31N 28°07' W 015°11'1121.2
2018-May-13 19:00N 28°06' W 014°59'1 0.3
2018-May-13 14:02N 28°05' W 014°60'120.3
2018-May-13 13:59N 28°05' W 015°01'1020.3
2018-May-13 13:30N 28°07' W 015°12'1020.3
2018-May-13 13:00N 28°09' W 015°23'1 2.6
2018-May-13 12:30N 28°10' W 015°24'0 0.0
2018-May-13 12:00N 28°10' W 015°24'0 0.0
2018-May-13 11:30N 28°10' W 015°24'0 0.0
2018-May-13 11:00N 28°10' W 015°24'0 0.0
2018-May-13 10:30N 28°10' W 015°24'0 0.0
2018-May-13 10:00N 28°10' W 015°24'1 1.2
2018-May-13 09:31N 28°09' W 015°24'917.2
2018-May-13 09:00N 28°14' W 015°32'3320.2
2018-May-13 07:23N 28°26' W 016°06'719.5
2018-May-13 07:01N 28°29' W 016°14'1 1.5
2018-May-13 06:30N 28°28' W 016°15'0 0.0
2018-May-13 06:00N 28°28' W 016°15'0 0.0
2018-May-13 05:30N 28°28' W 016°15'0 0.0
2018-May-13 05:00N 28°28' W 016°15'0 0.0
2018-May-13 04:30N 28°28' W 016°15'0 0.0
2018-May-13 04:00N 28°28' W 016°15'0 0.0
2018-May-13 03:30N 28°28' W 016°15'0 0.0
2018-May-13 03:00N 28°28' W 016°15'0 0.0
2018-May-13 02:30N 28°28' W 016°15'0 0.0
2018-May-13 02:00N 28°28' W 016°15'0 0.0
2018-May-13 01:30N 28°28' W 016°15'  
Track history (hours):
 
Tides and Currents Weather Stations Pressure Air Temp Water Temp Dewpoint Dewpoint Depression Visibility Wind Speed Wind Dir Waves Ship Positions

Volcan De Tamadaba

Last reported at 2018-May-23 01:30 UTC. Time now 2018-May-23 01:36 UTC.
Position N 28°19' W 015°02'.

Length 155 m; draft 5 m.

Type: Passenger vessel. MMSI: 224957000.

Date/timePositionNaut miles runAvg speedWind from/ knotsBaromVisibWave heightAir tempDewpointWater temp
2018-May-23 01:30N 28°19' W 015°02'1121.2
2018-May-23 01:00N 28°14' W 015°13'1121.1
2018-May-23 00:30N 28°09' W 015°23'1 1.6
2018-May-23 00:00N 28°10' W 015°24'0 0.0
2018-May-22 23:30N 28°10' W 015°24'0 0.0
2018-May-22 23:00N 28°10' W 015°24'0 0.0
2018-May-22 22:30N 28°10' W 015°24'1 1.0
2018-May-22 22:00N 28°09' W 015°24'918.4
2018-May-22 21:30N 28°15' W 015°32'1122.4
2018-May-22 21:00N 28°19' W 015°45'1322.2
2018-May-22 20:25N 28°23' W 015°58'922.4
2018-May-22 20:01N 28°27' W 016°08'612.2
2018-May-22 19:29N 28°28' W 016°15'0 0.0
2018-May-22 19:00N 28°28' W 016°15'0 0.0
2018-May-22 18:29N 28°28' W 016°15'0 0.0
2018-May-22 18:00N 28°28' W 016°15'4 9.2
2018-May-22 17:30N 28°27' W 016°10'2221.6
2018-May-22 16:30N 28°20' W 015°47'1021.3
2018-May-22 16:00N 28°16' W 015°35'1121.1
2018-May-22 15:30N 28°12' W 015°24'2 5.0
2018-May-22 15:00N 28°10' W 015°24'0 0.0
2018-May-22 14:30N 28°10' W 015°24'0 0.0
2018-May-22 13:59N 28°10' W 015°24'0 0.0
2018-May-22 13:30N 28°10' W 015°24'0 0.0
2018-May-22 13:00N 28°10' W 015°24'0 0.0
2018-May-22 12:30N 28°10' W 015°24'0 0.0
2018-May-22 12:00N 28°10' W 015°24'0 0.0
2018-May-22 11:30N 28°10' W 015°24'0 0.0
2018-May-22 11:00N 28°10' W 015°24'0 0.0
2018-May-22 10:30N 28°10' W 015°24'0 0.0
2018-May-22 10:00N 28°10' W 015°24'0 0.0
2018-May-22 09:30N 28°10' W 015°24'0 0.2
2018-May-22 09:00N 28°09' W 015°24'713.4
2018-May-22 08:30N 28°14' W 015°30'1121.5
2018-May-22 08:00N 28°18' W 015°41'1521.8
2018-May-22 07:19N 28°23' W 015°57'721.9
2018-May-22 07:00N 28°25' W 016°04'1019.1
2018-May-22 06:30N 28°29' W 016°14'0 0.7
2018-May-22 06:00N 28°28' W 016°15'0 0.0
2018-May-22 05:30N 28°28' W 016°15'0 0.0
2018-May-22 04:59N 28°28' W 016°15'0 0.0
2018-May-22 04:30N 28°28' W 016°15'0 0.0
2018-May-22 04:00N 28°28' W 016°15'0 0.0
2018-May-22 03:30N 28°28' W 016°15'0 0.0
2018-May-22 03:00N 28°28' W 016°15'0 0.0
2018-May-22 02:30N 28°28' W 016°15'0 0.0
2018-May-22 02:00N 28°28' W 016°15'0 0.0
2018-May-22 01:30N 28°28' W 016°15'0 0.0
2018-May-22 01:00N 28°28' W 016°15'0 0.0
2018-May-22 00:30N 28°28' W 016°15'0 0.0
2018-May-22 00:00N 28°28' W 016°15'0 0.0
2018-May-21 23:30N 28°28' W 016°15'0 0.0
2018-May-21 23:00N 28°28' W 016°15'0 0.0
2018-May-21 22:30N 28°28' W 016°15'0 0.0
2018-May-21 22:00N 28°28' W 016°15'3 6.6
2018-May-21 21:30N 28°28' W 016°11'3821.4
2018-May-21 19:43N 28°14' W 015°30'421.5
2018-May-21 19:30N 28°12' W 015°26'3 6.2
2018-May-21 19:00N 28°10' W 015°24'0 0.0
2018-May-21 18:30N 28°10' W 015°24'0 0.0
2018-May-21 18:01N 28°10' W 015°24'1 1.1
2018-May-21 17:30N 28°09' W 015°24'817.2
2018-May-21 17:00N 28°14' W 015°32'3121.1
2018-May-21 15:31N 28°25' W 016°05'121.0
2018-May-21 15:29N 28°26' W 016°06'817.3
2018-May-21 15:00N 28°28' W 016°15'0 0.2
2018-May-21 14:30N 28°28' W 016°15'0 0.0
2018-May-21 14:00N 28°28' W 016°15'0 0.0
2018-May-21 13:30N 28°28' W 016°15'0 0.0
2018-May-21 13:00N 28°28' W 016°15'0 0.0
2018-May-21 12:30N 28°28' W 016°15'0 0.0
2018-May-21 12:00N 28°28' W 016°15'0 0.0
2018-May-21 11:30N 28°28' W 016°15'0 0.0
2018-May-21 11:00N 28°28' W 016°15'0 0.0
2018-May-21 10:30N 28°28' W 016°15'0 0.0
2018-May-21 10:00N 28°28' W 016°15'0 0.0
2018-May-21 09:30N 28°28' W 016°15'0 0.0
2018-May-21 09:00N 28°28' W 016°15'3 6.5
2018-May-21 08:30N 28°28' W 016°11'1421.5
2018-May-21 07:51N 28°23' W 015°56'1221.5
2018-May-21 07:17N 28°18' W 015°43'821.5
2018-May-21 06:56N 28°16' W 015°35'921.5
2018-May-21 06:30N 28°13' W 015°25'3 6.3
2018-May-21 06:00N 28°10' W 015°24'0 0.0
2018-May-21 05:30N 28°10' W 015°24'0 0.0
2018-May-21 05:00N 28°10' W 015°24'0 0.0
2018-May-21 04:30N 28°10' W 015°24'0 0.0
2018-May-21 04:00N 28°10' W 015°24'0 0.0
2018-May-21 03:30N 28°10' W 015°24'0 0.0
2018-May-21 03:00N 28°10' W 015°24'0 0.0
2018-May-21 02:30N 28°10' W 015°24'0 0.0
2018-May-21 01:59N 28°10' W 015°24'0 0.0
2018-May-21 01:30N 28°10' W 015°24'0 0.0
2018-May-21 01:00N 28°10' W 015°24'0 0.0
2018-May-21 00:30N 28°10' W 015°24'0 0.0
2018-May-21 00:00N 28°10' W 015°24'0 0.0
2018-May-20 23:30N 28°10' W 015°24'0 0.0
2018-May-20 23:00N 28°10' W 015°24'0 0.0
2018-May-20 22:30N 28°10' W 015°24'0 0.0
2018-May-20 22:00N 28°10' W 015°24'0 0.0
2018-May-20 21:30N 28°10' W 015°24'0 0.3
2018-May-20 21:00N 28°09' W 015°24'713.5
2018-May-20 20:30N 28°14' W 015°30'1321.8
2018-May-20 19:55N 28°18' W 015°43'1521.4
2018-May-20 19:13N 28°24' W 015°59'521.5
2018-May-20 19:00N 28°25' W 016°04'1019.2
2018-May-20 18:30N 28°29' W 016°14'0 0.7
2018-May-20 18:00N 28°28' W 016°15'0 0.0
2018-May-20 17:30N 28°28' W 016°15'0 0.4
2018-May-20 17:00N 28°28' W 016°15'918.5
2018-May-20 16:30N 28°25' W 016°05'2121.7
2018-May-20 15:32N 28°18' W 015°42'121.4
2018-May-20 15:30N 28°18' W 015°42'1121.5
2018-May-20 15:00N 28°14' W 015°30'713.1
2018-May-20 14:28N 28°09' W 015°24'0 0.3
2018-May-20 14:00N 28°10' W 015°24'0 0.0
2018-May-20 13:30N 28°10' W 015°24'0 0.0
2018-May-20 13:00N 28°10' W 015°24'0 0.1
2018-May-20 12:30N 28°10' W 015°24'0 0.1
2018-May-20 12:00N 28°10' W 015°24'0 0.0
2018-May-20 11:30N 28°10' W 015°24'0 0.0
2018-May-20 11:00N 28°10' W 015°24'0 0.0
2018-May-20 10:30N 28°10' W 015°24'0 0.0
2018-May-20 10:00N 28°10' W 015°24'0 0.0
2018-May-20 09:30N 28°10' W 015°24'0 0.0
2018-May-20 08:58N 28°10' W 015°24'0 0.0
2018-May-20 08:30N 28°10' W 015°24'0 0.0
2018-May-20 08:00N 28°10' W 015°24'0 0.0
2018-May-20 07:30N 28°10' W 015°24'0 0.0
2018-May-20 07:00N 28°10' W 015°24'0 0.0
2018-May-20 06:30N 28°10' W 015°24'0 0.0
2018-May-20 06:00N 28°10' W 015°24'0 0.0
2018-May-20 05:29N 28°10' W 015°24'0 0.0
2018-May-20 05:00N 28°10' W 015°24'0 0.0
2018-May-20 04:30N 28°10' W 015°24'0 0.0
2018-May-20 04:00N 28°10' W 015°24'0 0.0
2018-May-20 03:30N 28°10' W 015°24'0 0.0
2018-May-20 03:00N 28°10' W 015°24'0 0.0
2018-May-20 02:30N 28°10' W 015°24'0 0.0
2018-May-20 02:00N 28°10' W 015°24'0 0.0
2018-May-20 01:30N 28°10' W 015°24'0 0.0
2018-May-20 01:00N 28°10' W 015°24'0 0.0
2018-May-20 00:30N 28°10' W 015°24'0 0.0
2018-May-20 00:00N 28°10' W 015°24'0 0.0
2018-May-19 23:30N 28°10' W 015°24'0 0.0
2018-May-19 23:00N 28°10' W 015°24'0 0.0
2018-May-19 22:30N 28°10' W 015°24'0 0.0
2018-May-19 22:00N 28°10' W 015°24'0 0.7
2018-May-19 21:30N 28°09' W 015°24'816.0
2018-May-19 20:59N 28°14' W 015°32'1121.5
2018-May-19 20:28N 28°19' W 015°43'1621.2
2018-May-19 19:44N 28°24' W 015°60'521.4
2018-May-19 19:31N 28°26' W 016°05'917.9
2018-May-19 19:00N 28°28' W 016°15'0 0.3
2018-May-19 18:30N 28°28' W 016°15'0 0.0
2018-May-19 18:00N 28°28' W 016°15'0 0.0
2018-May-19 17:30N 28°28' W 016°15'0 0.0
2018-May-19 17:00N 28°28' W 016°15'0 0.0
2018-May-19 16:29N 28°28' W 016°15'0 0.0
2018-May-19 16:00N 28°28' W 016°15'0 0.0
2018-May-19 15:30N 28°28' W 016°15'0 0.0
2018-May-19 15:00N 28°28' W 016°15'0 0.0
2018-May-19 14:30N 28°28' W 016°15'0 0.0
2018-May-19 14:00N 28°28' W 016°15'0 0.0
2018-May-19 13:30N 28°28' W 016°15'0 0.0
2018-May-19 13:00N 28°28' W 016°15'0 0.0
2018-May-19 12:30N 28°28' W 016°15'0 0.0
2018-May-19 12:00N 28°28' W 016°15'0 0.0
2018-May-19 11:29N 28°28' W 016°15'0 0.0
2018-May-19 11:00N 28°28' W 016°15'0 0.0
2018-May-19 10:30N 28°28' W 016°15'0 0.0
2018-May-19 10:00N 28°28' W 016°15'0 0.1
2018-May-19 09:30N 28°28' W 016°15'816.0
2018-May-19 09:00N 28°26' W 016°06'3421.4
2018-May-19 07:25N 28°14' W 015°30'718.0
2018-May-19 07:00N 28°09' W 015°24'1 1.1
2018-May-19 06:30N 28°10' W 015°24'0 0.0
2018-May-19 06:00N 28°10' W 015°24'0 0.0
2018-May-19 05:31N 28°10' W 015°24'0 0.0
2018-May-19 05:01N 28°10' W 015°24'0 0.0
2018-May-19 04:30N 28°10' W 015°24'0 0.0
2018-May-19 04:01N 28°10' W 015°24'0 0.0
2018-May-19 03:31N 28°10' W 015°24'0 0.1
2018-May-19 03:01N 28°10' W 015°24'0 0.0
2018-May-19 02:31N 28°10' W 015°24'0 0.0
2018-May-19 02:00N 28°10' W 015°24'0 0.0
2018-May-19 01:30N 28°10' W 015°24'0 0.0
2018-May-19 00:59N 28°10' W 015°24'0 0.0
2018-May-19 00:30N 28°10' W 015°24'0 0.0
2018-May-19 00:00N 28°10' W 015°24'0 0.0
2018-May-18 23:30N 28°10' W 015°24'0 0.0
2018-May-18 23:00N 28°10' W 015°24'0 0.0
2018-May-18 22:30N 28°10' W 015°24'0 0.0
2018-May-18 22:00N 28°10' W 015°24'3 5.8
2018-May-18 21:30N 28°12' W 015°25'4021.0
2018-May-18 19:36N 28°26' W 016°08'221.2
2018-May-18 19:30N 28°27' W 016°10'4 8.8
2018-May-18 19:00N 28°28' W 016°15'0 0.0
2018-May-18 18:30N 28°28' W 016°15'0 0.7
2018-May-18 18:00N 28°29' W 016°14'1019.2
2018-May-18 17:30N 28°25' W 016°04'3121.6
2018-May-18 16:03N 28°14' W 015°31'120.9
2018-May-18 16:00N 28°14' W 015°30'713.1
2018-May-18 15:30N 28°09' W 015°24'0 0.5
2018-May-18 15:00N 28°10' W 015°24'0 0.0
2018-May-18 14:30N 28°10' W 015°24'0 0.0
2018-May-18 14:00N 28°10' W 015°24'0 0.0
2018-May-18 13:30N 28°10' W 015°24'612.2
2018-May-18 13:00N 28°12' W 015°18'1121.6
2018-May-18 12:30N 28°17' W 015°07'7721.5
2018-May-18 08:55N 28°49' W 013°47'921.9
2018-May-18 08:30N 28°54' W 013°38'714.2
2018-May-18 07:59N 28°58' W 013°32'0 0.0
2018-May-18 07:30N 28°58' W 013°32'0 0.0
2018-May-18 06:45N 28°58' W 013°32'0 0.0
2018-May-18 06:30N 28°58' W 013°32'0 0.0
2018-May-18 06:00N 28°58' W 013°32'0 0.0
2018-May-18 05:29N 28°58' W 013°32'4 7.2
2018-May-18 05:00N 28°55' W 013°34'107 4.4
2018-May-17 04:34N 28°10' W 015°24'0 0.1
2018-May-17 04:29N 28°10' W 015°24'0 0.0
2018-May-17 04:00N 28°10' W 015°24'0 0.0
2018-May-17 03:30N 28°10' W 015°24'0 0.0
2018-May-17 03:01N 28°10' W 015°24'0 0.0
2018-May-17 02:30N 28°10' W 015°24'0 0.0
2018-May-17 02:01N 28°10' W 015°24'0 0.0
2018-May-17 01:31N 28°10' W 015°24'0 0.0
2018-May-17 01:00N 28°10' W 015°24'0 0.0
2018-May-17 00:30N 28°10' W 015°24'0 0.0
2018-May-17 00:00N 28°10' W 015°24'0 0.0
2018-May-16 23:29N 28°10' W 015°24'0 0.0
2018-May-16 23:00N 28°10' W 015°24'0 0.0
2018-May-16 22:29N 28°10' W 015°24'0 0.0
2018-May-16 22:00N 28°10' W 015°24'0 0.2
2018-May-16 21:30N 28°10' W 015°24'612.4
2018-May-16 21:01N 28°14' W 015°29'1121.2
2018-May-16 20:30N 28°17' W 015°40'1420.9
2018-May-16 19:49N 28°23' W 015°55'821.0
2018-May-16 19:27N 28°25' W 016°04'921.2
2018-May-16 19:00N 28°29' W 016°14'1 1.8
2018-May-16 18:30N 28°28' W 016°15'0 0.0
2018-May-16 18:00N 28°28' W 016°15'2 3.1
2018-May-16 17:30N 28°29' W 016°13'1121.2
2018-May-16 17:00N 28°25' W 016°02'1721.1
2018-May-16 16:12N 28°19' W 015°44'420.7
2018-May-16 16:00N 28°17' W 015°39'1020.7
2018-May-16 15:30N 28°13' W 015°28'510.9
2018-May-16 15:00N 28°10' W 015°24'0 0.0
2018-May-16 14:29N 28°10' W 015°24'0 0.0
2018-May-16 14:01N 28°10' W 015°24'0 0.0
2018-May-16 13:30N 28°10' W 015°24'0 0.0
2018-May-16 13:00N 28°10' W 015°24'0 0.0
2018-May-16 12:30N 28°10' W 015°24'0 0.0
2018-May-16 12:00N 28°10' W 015°24'0 0.0
2018-May-16 11:31N 28°10' W 015°24'0 0.0
2018-May-16 11:00N 28°10' W 015°24'0 0.0
2018-May-16 10:30N 28°10' W 015°24'0 0.0
2018-May-16 10:00N 28°10' W 015°24'0 0.0
2018-May-16 09:30N 28°10' W 015°24'0 0.4
2018-May-16 09:00N 28°09' W 015°24'714.3
2018-May-16 08:30N 28°14' W 015°30'1021.1
2018-May-16 08:00N 28°17' W 015°41'1121.2
2018-May-16 07:29N 28°21' W 015°53'1021.1
2018-May-16 07:00N 28°25' W 016°04'1019.8
2018-May-16 06:30N 28°29' W 016°14'1 1.2
2018-May-16 06:00N 28°28' W 016°15'0 0.0
2018-May-16 05:30N 28°28' W 016°15'0 0.0
2018-May-16 05:00N 28°28' W 016°15'0 0.0
2018-May-16 04:29N 28°28' W 016°15'0 0.0
2018-May-16 04:00N 28°28' W 016°15'0 0.0
2018-May-16 03:30N 28°28' W 016°15'0 0.0
2018-May-16 03:00N 28°28' W 016°15'0 0.0
2018-May-16 02:30N 28°28' W 016°15'0 0.0
2018-May-16 02:00N 28°28' W 016°15'0 0.0
2018-May-16 01:30N 28°28' W 016°15'0 0.0
2018-May-16 01:00N 28°28' W 016°15'0 0.0
2018-May-16 00:30N 28°28' W 016°15'0 0.0
2018-May-16 00:00N 28°28' W 016°15'0 0.0
2018-May-15 23:30N 28°28' W 016°15'0 0.0
2018-May-15 23:00N 28°28' W 016°15'0 0.0
2018-May-15 22:30N 28°28' W 016°15'0 0.0
2018-May-15 22:00N 28°28' W 016°15'815.1
2018-May-15 21:29N 28°26' W 016°06'3020.9
2018-May-15 20:04N 28°15' W 015°34'220.7
2018-May-15 19:58N 28°15' W 015°32'919.5
2018-May-15 19:30N 28°11' W 015°23'2 3.8
2018-May-15 19:01N 28°10' W 015°24'0 0.0
2018-May-15 18:30N 28°10' W 015°24'0 0.0
2018-May-15 18:01N 28°10' W 015°24'0 0.7
2018-May-15 17:31N 28°09' W 015°24'1019.2
2018-May-15 17:00N 28°15' W 015°33'1121.0
2018-May-15 16:30N 28°19' W 015°44'1320.3
2018-May-15 15:52N 28°23' W 015°58'820.8
2018-May-15 15:29N 28°26' W 016°06'816.6
2018-May-15 15:01N 28°28' W 016°15'0 0.0
2018-May-15 14:30N 28°28' W 016°15'0 0.0
2018-May-15 14:01N 28°28' W 016°15'0 0.0
2018-May-15 13:30N 28°28' W 016°15'0 0.0
2018-May-15 13:00N 28°28' W 016°15'0 0.0
2018-May-15 12:31N 28°28' W 016°15'0 0.0
2018-May-15 12:00N 28°28' W 016°15'0 0.0
2018-May-15 11:31N 28°28' W 016°15'0 0.0
2018-May-15 11:00N 28°28' W 016°15'0 0.0
2018-May-15 10:31N 28°28' W 016°15'0 0.0
2018-May-15 10:00N 28°28' W 016°15'0 0.0
2018-May-15 09:31N 28°28' W 016°15'0 0.0
2018-May-15 09:01N 28°28' W 016°15'5 9.8
2018-May-15 08:29N 28°27' W 016°09'3221.2
2018-May-15 06:58N 28°15' W 015°35'1020.5
2018-May-15 06:28N 28°12' W 015°24'2 5.1
2018-May-15 06:00N 28°10' W 015°24'0 0.0
2018-May-15 05:30N 28°10' W 015°24'0 0.0
2018-May-15 05:00N 28°10' W 015°24'0 0.0
2018-May-15 04:30N 28°10' W 015°24'0 0.0
2018-May-15 04:00N 28°10' W 015°24'0 0.0
2018-May-15 03:30N 28°10' W 015°24'0 0.0
2018-May-15 03:00N 28°10' W 015°24'0 0.0
2018-May-15 02:30N 28°10' W 015°24'0 0.0
2018-May-15 02:00N 28°10' W 015°24'0 0.0
2018-May-15 01:29N 28°10' W 015°24'0 0.0
2018-May-15 01:00N 28°10' W 015°24'0 0.0
2018-May-15 00:30N 28°10' W 015°24'0 0.0
2018-May-15 00:00N 28°10' W 015°24'0 0.0
2018-May-14 23:30N 28°10' W 015°24'0 0.0
2018-May-14 23:00N 28°10' W 015°24'0 0.0
2018-May-14 22:30N 28°10' W 015°24'0 0.0
2018-May-14 22:00N 28°10' W 015°24'0 0.0
2018-May-14 21:30N 28°10' W 015°24'0 0.0
2018-May-14 21:00N 28°10' W 015°24'0 0.0
2018-May-14 20:30N 28°10' W 015°24'0 0.0
2018-May-14 20:00N 28°10' W 015°24'0 0.0
2018-May-14 19:30N 28°10' W 015°24'0 0.0
2018-May-14 19:00N 28°10' W 015°24'0 0.0
2018-May-14 18:30N 28°10' W 015°24'0 0.0
2018-May-14 18:00N 28°10' W 015°24'2 4.2
2018-May-14 17:30N 28°09' W 015°22'1121.1
2018-May-14 17:00N 28°07' W 015°10'1121.3
2018-May-14 16:30N 28°06' W 014°58'1521.1
2018-May-14 15:47N 28°03' W 014°41'621.0
2018-May-14 15:30N 28°02' W 014°35'20 2.8
2018-May-14 08:12N 28°05' W 014°57'420.1
2018-May-14 08:00N 28°06' W 015°02'1020.2
2018-May-14 07:30N 28°07' W 015°13'1019.8
2018-May-14 07:00N 28°09' W 015°24'1 1.0
2018-May-14 06:30N 28°10' W 015°24'0 0.0
2018-May-14 06:00N 28°10' W 015°24'0 0.0
2018-May-14 05:31N 28°10' W 015°24'0 0.0
2018-May-14 05:01N 28°10' W 015°24'0 0.0
2018-May-14 04:31N 28°10' W 015°24'0 0.0
2018-May-14 04:01N 28°10' W 015°24'0 0.0
2018-May-14 03:30N 28°10' W 015°24'0 0.0
2018-May-14 03:00N 28°10' W 015°24'0 0.0
2018-May-14 02:30N 28°10' W 015°24'0 0.0
2018-May-14 02:00N 28°10' W 015°24'0 0.0
2018-May-14 01:31N 28°10' W 015°24'0 0.0
2018-May-14 01:00N 28°10' W 015°24'0 0.0
2018-May-14 00:31N 28°10' W 015°24'0 0.0
2018-May-14 00:00N 28°10' W 015°24'0 0.0
2018-May-13 23:30N 28°10' W 015°24'0 0.0
2018-May-13 23:01N 28°10' W 015°24'0 0.0
2018-May-13 22:30N 28°10' W 015°24'0 0.0
2018-May-13 22:00N 28°10' W 015°24'0 0.0
2018-May-13 21:31N 28°10' W 015°24'0 0.0
2018-May-13 21:00N 28°10' W 015°24'0 0.0
2018-May-13 20:30N 28°10' W 015°24'1 2.7
2018-May-13 20:01N 28°09' W 015°23'1121.1
2018-May-13 19:31N 28°07' W 015°11'1121.2
2018-May-13 19:00N 28°06' W 014°59'1 0.3
2018-May-13 14:02N 28°05' W 014°60'120.3
2018-May-13 13:59N 28°05' W 015°01'1020.3
2018-May-13 13:30N 28°07' W 015°12'1020.3
2018-May-13 13:00N 28°09' W 015°23'1 2.6
2018-May-13 12:30N 28°10' W 015°24'0 0.0
2018-May-13 12:00N 28°10' W 015°24'0 0.0
2018-May-13 11:30N 28°10' W 015°24'0 0.0
2018-May-13 11:00N 28°10' W 015°24'0 0.0
2018-May-13 10:30N 28°10' W 015°24'0 0.0
2018-May-13 10:00N 28°10' W 015°24'1 1.2
2018-May-13 09:31N 28°09' W 015°24'917.2
2018-May-13 09:00N 28°14' W 015°32'3320.2
2018-May-13 07:23N 28°26' W 016°06'719.5
2018-May-13 07:01N 28°29' W 016°14'1 1.5
2018-May-13 06:30N 28°28' W 016°15'0 0.0
2018-May-13 06:00N 28°28' W 016°15'0 0.0
2018-May-13 05:30N 28°28' W 016°15'0 0.0
2018-May-13 05:00N 28°28' W 016°15'0 0.0
2018-May-13 04:30N 28°28' W 016°15'0 0.0
2018-May-13 04:00N 28°28' W 016°15'0 0.0
2018-May-13 03:30N 28°28' W 016°15'0 0.0
2018-May-13 03:00N 28°28' W 016°15'0 0.0
2018-May-13 02:30N 28°28' W 016°15'0 0.0
2018-May-13 02:00N 28°28' W 016°15'0 0.0
2018-May-13 01:30N 28°28' W 016°15'  

Dump ship's entire track history